createdAt,value
2023-01-21T00:01:22.089Z,101134.03
2023-01-21T00:06:23.298Z,101140.97
2023-01-21T00:11:24.487Z,101146.38
2023-01-21T00:16:25.838Z,101139.03
2023-01-21T00:21:26.973Z,101157.06
2023-01-21T00:26:28.165Z,101166.53
2023-01-21T00:31:29.428Z,101177.53
2023-01-21T00:36:30.868Z,101185.84
2023-01-21T00:41:32.112Z,101189.41
2023-01-21T00:46:33.401Z,101201.41
2023-01-21T00:51:34.624Z,101205.59
2023-01-21T00:56:35.832Z,101213.56
2023-01-21T01:01:38.543Z,101224.47
2023-01-21T01:06:39.801Z,101223.72
2023-01-21T01:11:41.031Z,101229.31
2023-01-21T01:16:42.239Z,101235.09
2023-01-21T01:21:43.381Z,101247.63
2023-01-21T01:26:44.568Z,101258.28
2023-01-21T01:31:45.822Z,101267.75
2023-01-21T01:36:47.961Z,101270.25
2023-01-21T01:41:49.146Z,101283.06
2023-01-21T01:46:50.355Z,101275.06
2023-01-21T01:51:51.588Z,101293.50
2023-01-21T01:56:52.851Z,101300.63
2023-01-21T02:01:55.844Z,101303.31
2023-01-21T02:06:57.041Z,101315.75
2023-01-21T02:12:00.297Z,101318.75
2023-01-21T02:17:01.582Z,101323.53
2023-01-21T02:22:02.787Z,101327.09
2023-01-21T02:27:04.014Z,101348.94
2023-01-21T02:32:05.287Z,101342.44
2023-01-21T02:37:06.494Z,101351.38
2023-01-21T02:42:07.700Z,101354.25
2023-01-21T02:47:08.880Z,101356.03
2023-01-21T02:52:10.074Z,101361.09
2023-01-21T02:57:11.276Z,101369.41
2023-01-21T03:02:12.483Z,101362.03
2023-01-21T03:07:15.960Z,101364.97
2023-01-21T03:12:17.173Z,101378.38
2023-01-21T03:17:18.330Z,101381.94
2023-01-21T03:22:19.538Z,101382.81
2023-01-21T03:27:20.758Z,101391.66
2023-01-21T03:32:21.942Z,101390.44
2023-01-21T03:37:23.214Z,101400.84
2023-01-21T03:42:24.403Z,101394.56
2023-01-21T03:47:26.480Z,101408.22
2023-01-21T03:52:27.741Z,101410.53
2023-01-21T03:57:29.027Z,101412.16
2023-01-21T04:02:31.421Z,101427.16
2023-01-21T04:07:32.644Z,101427.22
2023-01-21T04:12:33.842Z,101438.22
2023-01-21T04:17:35.044Z,101446.13
2023-01-21T04:22:36.297Z,101444.44
2023-01-21T04:27:37.519Z,101454.47
2023-01-21T04:32:38.750Z,101464.75
2023-01-21T04:37:40.001Z,101462.00
2023-01-21T04:42:41.238Z,101456.94
2023-01-21T04:47:42.503Z,101462.34
2023-01-21T04:52:43.701Z,101474.00
2023-01-21T04:57:44.891Z,101490.22
2023-01-21T05:02:48.133Z,101485.00
2023-01-21T05:07:49.305Z,101496.88
2023-01-21T05:12:50.479Z,101503.16
2023-01-21T05:17:51.633Z,101505.63
2023-01-21T05:22:52.837Z,101504.16
2023-01-21T05:27:54.402Z,101507.69
2023-01-21T05:32:55.600Z,101505.91
2023-01-21T05:37:58.859Z,101517.09
2023-01-21T05:43:01.366Z,101523.41
2023-01-21T05:48:02.489Z,101541.59
2023-01-21T05:53:04.642Z,101539.38
2023-01-21T05:58:05.813Z,101548.09
2023-01-21T06:03:06.956Z,101559.22
2023-01-21T06:08:08.151Z,101568.38
2023-01-21T06:13:09.336Z,101573.22
2023-01-21T06:18:10.469Z,101574.84
2023-01-21T06:23:11.977Z,101584.84
2023-01-21T06:28:13.202Z,101591.06
2023-01-21T06:33:16.655Z,101607.66
2023-01-21T06:38:21.269Z,101611.75
2023-01-21T06:43:22.396Z,101619.97
2023-01-21T06:48:23.520Z,101626.72
2023-01-21T06:53:24.797Z,101632.03
2023-01-21T06:58:26.078Z,101629.91
2023-01-21T07:03:27.371Z,101627.88
2023-01-21T07:08:28.525Z,101636.63
2023-01-21T07:13:29.711Z,101633.31
2023-01-21T07:18:30.863Z,101654.69
2023-01-21T07:23:32.013Z,101650.84
2023-01-21T07:28:33.168Z,101664.16
2023-01-21T07:33:34.331Z,101677.50
2023-01-21T07:38:35.481Z,101679.78
2023-01-21T07:43:36.643Z,101692.00
2023-01-21T07:48:37.797Z,101702.75
2023-01-21T07:53:41.083Z,101693.94
2023-01-21T07:58:42.282Z,101708.06
2023-01-21T08:03:43.484Z,101704.53
2023-01-21T08:08:44.735Z,101703.22
2023-01-21T08:13:45.948Z,101710.28
2023-01-21T08:18:47.125Z,101708.31
2023-01-21T08:23:48.295Z,101712.44
2023-01-21T08:28:49.481Z,101723.59
2023-01-21T08:33:50.650Z,101717.00
2023-01-21T08:38:51.805Z,101730.81
2023-01-21T08:43:55.020Z,101746.19
2023-01-21T08:48:56.164Z,101750.50
2023-01-21T08:53:57.331Z,101748.56
2023-01-21T08:58:58.622Z,101757.59
2023-01-21T09:03:59.844Z,101764.59
2023-01-21T09:09:01.574Z,101769.94
2023-01-21T09:14:04.053Z,101767.28
2023-01-21T09:19:05.429Z,101777.34
2023-01-21T09:24:06.631Z,101782.50
2023-01-21T09:29:09.310Z,101777.38
2023-01-21T09:34:12.984Z,101777.72
2023-01-21T09:39:14.113Z,101775.06
2023-01-21T09:44:15.282Z,101786.72
2023-01-21T09:49:16.421Z,101805.03
2023-01-21T09:54:17.591Z,101804.28
2023-01-21T09:59:20.922Z,101813.09
2023-01-21T10:04:22.219Z,101772.72
2023-01-21T10:09:23.610Z,101819.81
2023-01-21T10:14:24.817Z,101817.50
2023-01-21T10:19:28.349Z,101821.09
2023-01-21T10:24:29.524Z,101808.19
2023-01-21T10:29:30.750Z,101809.63
2023-01-21T10:34:32.039Z,101814.19
2023-01-21T10:39:33.208Z,101819.00
2023-01-21T10:44:34.362Z,101814.75
2023-01-21T10:49:36.705Z,101821.13
2023-01-21T10:54:39.929Z,101823.59
2023-01-21T10:59:41.203Z,101833.19
2023-01-21T11:04:44.646Z,101824.31
2023-01-21T11:09:46.016Z,101820.94
2023-01-21T11:14:47.189Z,101838.50
2023-01-21T11:19:48.664Z,101817.41
2023-01-21T11:24:51.586Z,101823.03
2023-01-21T11:29:54.381Z,101819.88
2023-01-21T11:34:55.535Z,101817.53
2023-01-21T11:39:56.794Z,101822.19
2023-01-21T11:44:59.292Z,101807.31
2023-01-21T11:55:15.651Z,101817.56
2023-01-21T12:00:17.519Z,101808.66
2023-01-21T12:05:18.821Z,101799.75
2023-01-21T12:10:19.977Z,101795.59
2023-01-21T12:15:21.156Z,101788.03
2023-01-21T12:20:22.413Z,101795.66
2023-01-21T12:25:23.666Z,101794.69
2023-01-21T12:30:24.961Z,101784.16
2023-01-21T12:35:26.164Z,101786.16
2023-01-21T12:40:27.339Z,101784.22
2023-01-21T12:45:28.566Z,101782.63
2023-01-21T12:50:29.763Z,101780.63
2023-01-21T12:55:30.915Z,101792.94
2023-01-21T13:00:32.220Z,101801.72
2023-01-21T13:05:33.443Z,101800.94
2023-01-21T13:10:34.584Z,101801.75
2023-01-21T13:15:35.775Z,101803.38
2023-01-21T13:20:36.993Z,101791.38
2023-01-21T13:25:38.235Z,101798.13
2023-01-21T13:30:39.498Z,101809.47
2023-01-21T13:35:40.673Z,101810.25
2023-01-21T13:40:41.925Z,101824.63
2023-01-21T13:45:43.178Z,101830.81
2023-01-21T13:50:44.518Z,101829.16
2023-01-21T13:55:45.699Z,101838.06
2023-01-21T14:00:47.071Z,101833.88
2023-01-21T14:05:48.216Z,101841.44
2023-01-21T14:10:49.405Z,101848.75
2023-01-21T14:15:50.540Z,101851.13
2023-01-21T14:20:52.639Z,101854.13
2023-01-21T14:25:54.003Z,101858.31
2023-01-21T14:30:55.225Z,101857.09
2023-01-21T14:35:56.429Z,101854.50
2023-01-21T14:40:57.562Z,101855.28
2023-01-21T14:45:58.920Z,101856.72
2023-01-21T14:51:00.212Z,101859.28
2023-01-21T14:56:01.450Z,101857.50
2023-01-21T15:01:02.659Z,101855.72
2023-01-21T15:06:03.873Z,101862.13
2023-01-21T15:11:05.254Z,101853.38
2023-01-21T15:16:08.246Z,101854.94
2023-01-21T15:21:09.402Z,101863.72
2023-01-21T15:26:13.426Z,101865.31
2023-01-21T15:31:14.752Z,101858.97
2023-01-21T15:36:16.007Z,101872.59
2023-01-21T15:41:17.220Z,101867.75
2023-01-21T15:46:18.489Z,101873.69
2023-01-21T15:51:20.814Z,101876.59
2023-01-21T15:56:22.070Z,101824.81
2023-01-21T16:01:24.568Z,101882.53
2023-01-21T16:06:25.778Z,101884.50
2023-01-21T16:11:26.904Z,101879.31
2023-01-21T16:16:28.040Z,101886.91
2023-01-21T16:21:29.191Z,101893.50
2023-01-21T16:26:32.731Z,101894.09
2023-01-21T16:31:34.415Z,101891.72
2023-01-21T16:36:35.661Z,101897.66
2023-01-21T16:41:36.981Z,101894.84
2023-01-21T16:46:38.449Z,101887.88
2023-01-21T16:51:41.410Z,101884.88
2023-01-21T16:56:42.542Z,101885.63
2023-01-21T17:01:43.796Z,101893.16
2023-01-21T17:06:47.428Z,101889.13
2023-01-21T17:11:48.637Z,101890.69
2023-01-21T17:16:49.919Z,101885.88
2023-01-21T17:21:55.189Z,101885.88
2023-01-21T17:27:03.447Z,101890.25
2023-01-21T17:32:04.699Z,101889.19
2023-01-21T17:37:07.624Z,101893.50
2023-01-21T17:42:08.963Z,101904.19
2023-01-21T17:47:11.205Z,101902.38
2023-01-21T17:52:12.399Z,101913.44
2023-01-21T17:57:13.603Z,101910.84
2023-01-21T18:02:14.885Z,101914.59
2023-01-21T18:07:16.092Z,101920.13
2023-01-21T18:12:19.399Z,101934.81
2023-01-21T18:17:29.849Z,101935.66
2023-01-21T18:22:31.858Z,101935.19
2023-01-21T18:27:33.048Z,101936.97
2023-01-21T18:32:34.271Z,101933.16
2023-01-21T18:37:35.481Z,101929.94
2023-01-21T18:42:36.639Z,101928.53
2023-01-21T18:47:37.798Z,101931.13
2023-01-21T18:52:39.013Z,101924.50
2023-01-21T18:57:40.213Z,101927.47
2023-01-21T19:02:41.416Z,101937.00
2023-01-21T19:07:42.550Z,101925.25
2023-01-21T19:12:43.766Z,101925.53
2023-01-21T19:17:45.000Z,101910.22
2023-01-21T19:22:46.255Z,101901.13
2023-01-21T19:27:47.448Z,101910.22
2023-01-21T19:32:48.851Z,101913.72
2023-01-21T19:37:50.105Z,101911.31
2023-01-21T19:42:51.304Z,101901.16
2023-01-21T19:47:52.536Z,101900.81
2023-01-21T19:52:53.703Z,101900.22
2023-01-21T19:57:54.869Z,101893.13
2023-01-21T20:02:56.087Z,101898.56
2023-01-21T20:07:57.379Z,101900.75
2023-01-21T20:12:58.598Z,101901.94
2023-01-21T20:18:02.080Z,101902.91
2023-01-21T20:23:03.319Z,101893.56
2023-01-21T20:28:04.543Z,101897.13
2023-01-21T20:33:05.726Z,101889.38
2023-01-21T20:38:06.958Z,101876.88
2023-01-21T20:43:08.101Z,101879.81
2023-01-21T20:48:09.325Z,101893.56
2023-01-21T20:53:10.500Z,101893.38
2023-01-21T20:58:11.849Z,101894.78
2023-01-21T21:03:13.029Z,101887.84
2023-01-21T21:08:15.986Z,101884.91
2023-01-21T21:13:18.688Z,101762.47
2023-01-21T21:18:19.864Z,101873.41
2023-01-21T21:23:21.054Z,101857.28
2023-01-21T21:28:22.245Z,101861.66
2023-01-21T21:33:23.537Z,101860.59
2023-01-21T21:38:28.113Z,101852.25
2023-01-21T21:43:34.404Z,101854.19
2023-01-21T21:48:38.773Z,101855.81
2023-01-21T21:53:39.988Z,101850.28
2023-01-21T21:58:41.291Z,101844.31
2023-01-21T22:03:42.434Z,101850.88
2023-01-21T22:08:46.502Z,101846.34
2023-01-21T22:13:50.133Z,101853.72
2023-01-21T22:18:51.696Z,101852.41
2023-01-21T22:23:52.948Z,101850.06
2023-01-21T22:28:54.158Z,101832.22
2023-01-21T22:33:57.439Z,101834.22
2023-01-21T22:38:58.710Z,101831.97
2023-01-21T22:43:59.889Z,101841.19
2023-01-21T22:49:01.101Z,101840.31
2023-01-21T22:54:02.327Z,101832.66
2023-01-21T22:59:03.479Z,101823.16
2023-01-21T23:04:04.743Z,101840.75
2023-01-21T23:09:09.173Z,101829.06
2023-01-21T23:14:12.696Z,101844.34
2023-01-21T23:19:13.900Z,101823.66
2023-01-21T23:24:15.174Z,101814.13
2023-01-21T23:29:16.375Z,101806.91
2023-01-21T23:34:19.704Z,101810.53
2023-01-21T23:39:22.433Z,101806.72
2023-01-21T23:44:27.757Z,101787.84
2023-01-21T23:49:28.957Z,101785.25
2023-01-21T23:54:30.155Z,101785.06
2023-01-21T23:59:32.271Z,101795.00
